Datum - ZeitTemperaturTaupunktFeuchteSolaruvi Wind aus Richtung WindböenLuftdruck (QFF)RegenRegenstärkeTrend
23.10.2019 - 00.00Uhr12.4 °C9.4 °C82 %0.0 W/m²0.0 uvi0.0 km/hOst-NO0.0 km/h1019.0 hPa0.0 mm0.0 mm/hwechselhaft
23.10.2019 - 00.05Uhr12.3 °C9.3 °C82 %0.0 W/m²0.0 uvi0.0 km/hOst-NO0.0 km/h1019.0 hPa0.0 mm0.0 mm/hwechselhaft
23.10.2019 - 00.10Uhr12.2 °C9.2 °C82 %0.0 W/m²0.0 uvi0.0 km/hOst-NO0.0 km/h1018.8 hPa0.0 mm0.0 mm/hwechselhaft
23.10.2019 - 00.15Uhr12.1 °C9.1 °C82 %0.0 W/m²0.0 uvi0.0 km/hOst-NO0.0 km/h1018.8 hPa0.0 mm0.0 mm/hwechselhaft
23.10.2019 - 00.20Uhr12.0 °C9.0 °C82 %0.0 W/m²0.0 uvi0.0 km/hOst-NO0.0 km/h1018.7 hPa0.0 mm0.0 mm/hwechselhaft
23.10.2019 - 00.25Uhr11.9 °C8.9 °C82 %0.0 W/m²0.0 uvi0.0 km/hOst-NO0.0 km/h1018.6 hPa0.0 mm0.0 mm/hwechselhaft
23.10.2019 - 00.30Uhr11.9 °C8.9 °C82 %0.0 W/m²0.0 uvi0.0 km/hOst-NO0.0 km/h1018.6 hPa0.0 mm0.0 mm/hwechselhaft
23.10.2019 - 00.35Uhr11.8 °C8.8 °C82 %0.0 W/m²0.0 uvi0.0 km/hOst-NO0.0 km/h1018.6 hPa0.0 mm0.0 mm/hwechselhaft
23.10.2019 - 00.40Uhr11.8 °C8.8 °C82 %0.0 W/m²0.0 uvi0.0 km/hOst-NO0.0 km/h1018.6 hPa0.0 mm0.0 mm/hwechselhaft
23.10.2019 - 00.45Uhr11.7 °C8.7 °C82 %0.0 W/m²0.0 uvi0.0 km/hOst-NO0.0 km/h1018.5 hPa0.0 mm0.0 mm/hwechselhaft
23.10.2019 - 00.50Uhr11.6 °C8.6 °C82 %0.0 W/m²0.0 uvi0.0 km/hOst-NO0.0 km/h1018.5 hPa0.0 mm0.0 mm/hwechselhaft
23.10.2019 - 00.55Uhr11.5 °C8.5 °C82 %0.0 W/m²0.0 uvi0.0 km/hOst-NO0.0 km/h1018.5 hPa0.0 mm0.0 mm/hwechselhaft
23.10.2019 - 01.00Uhr11.4 °C8.4 °C82 %0.0 W/m²0.0 uvi0.0 km/hOst-NO0.0 km/h1018.4 hPa0.0 mm0.0 mm/hwechselhaft
23.10.2019 - 01.05Uhr11.4 °C8.4 °C82 %0.0 W/m²0.0 uvi0.0 km/hOst-NO0.0 km/h1018.4 hPa0.0 mm0.0 mm/hwechselhaft
23.10.2019 - 01.10Uhr11.3 °C8.3 °C82 %0.0 W/m²0.0 uvi0.0 km/hOst-NO0.0 km/h1018.3 hPa0.0 mm0.0 mm/hwechselhaft
23.10.2019 - 01.15Uhr11.2 °C8.2 °C82 %0.0 W/m²0.0 uvi0.0 km/hOst-NO0.0 km/h1018.3 hPa0.0 mm0.0 mm/hwechselhaft
23.10.2019 - 01.20Uhr11.1 °C8.1 °C82 %0.0 W/m²0.0 uvi0.0 km/hOst-NO0.0 km/h1018.1 hPa0.0 mm0.0 mm/hwechselhaft
23.10.2019 - 01.25Uhr11.0 °C8.0 °C82 %0.0 W/m²0.0 uvi0.0 km/hOst-NO0.0 km/h1018.0 hPa0.0 mm0.0 mm/hwechselhaft
23.10.2019 - 01.30Uhr11.1 °C8.1 °C82 %0.0 W/m²0.0 uvi0.0 km/hOst-NO0.0 km/h1017.9 hPa0.0 mm0.0 mm/hwechselhaft
23.10.2019 - 01.35Uhr11.2 °C8.2 °C82 %0.0 W/m²0.0 uvi0.0 km/hOst-NO0.0 km/h1018.0 hPa0.0 mm0.0 mm/hwechselhaft
23.10.2019 - 01.40Uhr11.2 °C8.2 °C82 %0.0 W/m²0.0 uvi0.0 km/hOst-NO0.0 km/h1017.9 hPa0.0 mm0.0 mm/hwechselhaft
23.10.2019 - 01.45Uhr11.2 °C8.2 °C82 %0.0 W/m²0.0 uvi0.0 km/hOst-NO0.0 km/h1017.8 hPa0.0 mm0.0 mm/hwechselhaft
23.10.2019 - 01.50Uhr11.3 °C8.3 °C82 %0.0 W/m²0.0 uvi0.0 km/hOst-NO0.0 km/h1017.8 hPa0.0 mm0.0 mm/hwechselhaft
23.10.2019 - 01.55Uhr11.3 °C8.3 °C82 %0.0 W/m²0.0 uvi0.0 km/hOst-NO0.0 km/h1017.8 hPa0.0 mm0.0 mm/hwechselhaft
23.10.2019 - 02.00Uhr11.4 °C8.4 °C82 %0.0 W/m²0.0 uvi0.0 km/hNord-NO0.0 km/h1017.8 hPa0.0 mm0.0 mm/hwechselhaft
23.10.2019 - 02.05Uhr11.4 °C8.4 °C82 %0.0 W/m²0.0 uvi0.0 km/hNord-NO0.0 km/h1017.7 hPa0.0 mm0.0 mm/hwechselhaft
23.10.2019 - 02.10Uhr11.3 °C8.3 °C82 %0.0 W/m²0.0 uvi0.0 km/hNord-NO0.0 km/h1017.6 hPa0.0 mm0.0 mm/hwechselhaft
23.10.2019 - 02.15Uhr11.2 °C8.2 °C82 %0.0 W/m²0.0 uvi0.0 km/hNord-NO0.0 km/h1017.6 hPa0.0 mm0.0 mm/hwechselhaft
23.10.2019 - 02.20Uhr11.0 °C8.0 °C82 %0.0 W/m²0.0 uvi0.0 km/hNord-NO0.0 km/h1017.6 hPa0.0 mm0.0 mm/hwechselhaft
23.10.2019 - 02.25Uhr10.8 °C7.9 °C82 %0.0 W/m²0.0 uvi0.0 km/hNord-NO0.0 km/h1017.7 hPa0.0 mm0.0 mm/hwechselhaft
23.10.2019 - 02.30Uhr10.7 °C7.8 °C82 %0.0 W/m²0.0 uvi0.0 km/hNord-NO0.0 km/h1017.7 hPa0.0 mm0.0 mm/hwechselhaft
23.10.2019 - 02.35Uhr10.7 °C7.8 °C82 %0.0 W/m²0.0 uvi0.0 km/hNord-NO0.0 km/h1017.6 hPa0.0 mm0.0 mm/hwechselhaft
23.10.2019 - 02.40Uhr10.7 °C7.8 °C82 %0.0 W/m²0.0 uvi0.0 km/hNord-NO0.0 km/h1017.6 hPa0.0 mm0.0 mm/hwechselhaft
23.10.2019 - 02.45Uhr10.7 °C7.8 °C82 %0.0 W/m²0.0 uvi0.0 km/hNordosten0.0 km/h1017.5 hPa0.0 mm0.0 mm/hwechselhaft
23.10.2019 - 02.50Uhr10.9 °C7.9 °C82 %0.0 W/m²0.0 uvi0.0 km/hNordosten0.0 km/h1017.4 hPa0.0 mm0.0 mm/hwechselhaft
23.10.2019 - 02.55Uhr11.1 °C8.2 °C82 %0.0 W/m²0.0 uvi0.0 km/hNordosten0.0 km/h1017.3 hPa0.0 mm0.0 mm/hwechselhaft
23.10.2019 - 03.00Uhr11.2 °C8.2 °C82 %0.0 W/m²0.0 uvi0.0 km/hNordosten0.0 km/h1017.2 hPa0.0 mm0.0 mm/hwechselhaft
23.10.2019 - 03.05Uhr11.3 °C8.3 °C82 %0.0 W/m²0.0 uvi0.1 km/hNordosten1.4 km/h1017.0 hPa0.0 mm0.0 mm/hwechselhaft
23.10.2019 - 03.10Uhr11.3 °C8.3 °C82 %0.0 W/m²0.0 uvi0.2 km/hNordosten1.4 km/h1017.1 hPa0.0 mm0.0 mm/hwechselhaft
23.10.2019 - 03.15Uhr11.3 °C8.3 °C82 %0.0 W/m²0.0 uvi0.1 km/hNordosten1.4 km/h1017.1 hPa0.0 mm0.0 mm/hwechselhaft
23.10.2019 - 03.20Uhr11.3 °C8.3 °C82 %0.0 W/m²0.0 uvi1.1 km/hNordosten3.2 km/h1017.0 hPa0.0 mm0.0 mm/hwechselhaft
23.10.2019 - 03.25Uhr11.3 °C8.3 °C82 %0.0 W/m²0.0 uvi1.7 km/hNordosten6.5 km/h1016.9 hPa0.0 mm0.0 mm/hwechselhaft
23.10.2019 - 03.30Uhr11.3 °C8.3 °C82 %0.0 W/m²0.0 uvi0.9 km/hNordosten3.2 km/h1016.9 hPa0.0 mm0.0 mm/hwechselhaft
23.10.2019 - 03.35Uhr11.3 °C8.3 °C82 %0.0 W/m²0.0 uvi0.7 km/hNordosten3.2 km/h1016.9 hPa0.0 mm0.0 mm/hwechselhaft
23.10.2019 - 03.40Uhr11.3 °C8.3 °C82 %0.0 W/m²0.0 uvi1.2 km/hNordosten4.7 km/h1016.8 hPa0.0 mm0.0 mm/hwechselhaft
23.10.2019 - 03.45Uhr11.3 °C8.3 °C82 %0.0 W/m²0.0 uvi1.0 km/hNord-NO3.2 km/h1016.9 hPa0.0 mm0.0 mm/hwechselhaft
23.10.2019 - 03.50Uhr11.3 °C8.3 °C82 %0.0 W/m²0.0 uvi1.2 km/hNordosten4.7 km/h1016.8 hPa0.0 mm0.0 mm/hwechselhaft
23.10.2019 - 03.55Uhr11.3 °C8.3 °C82 %0.0 W/m²0.0 uvi1.3 km/hNordosten14.4 km/h1016.8 hPa0.0 mm0.0 mm/hwechselhaft
23.10.2019 - 04.00Uhr11.3 °C8.3 °C82 %0.0 W/m²0.0 uvi1.1 km/hNordosten4.7 km/h1016.7 hPa0.0 mm0.0 mm/hwechselhaft
23.10.2019 - 04.05Uhr11.3 °C8.3 °C82 %0.0 W/m²0.0 uvi0.7 km/hNordosten4.7 km/h1016.8 hPa0.0 mm0.0 mm/hwechselhaft
23.10.2019 - 04.10Uhr11.3 °C8.3 °C82 %0.0 W/m²0.0 uvi0.5 km/hNordosten1.4 km/h1016.7 hPa0.0 mm0.0 mm/hwechselhaft
23.10.2019 - 04.15Uhr11.3 °C8.3 °C82 %0.0 W/m²0.0 uvi0.2 km/hNordosten1.4 km/h1016.6 hPa0.0 mm0.0 mm/hwechselhaft
23.10.2019 - 04.20Uhr11.3 °C8.3 °C82 %0.0 W/m²0.0 uvi0.1 km/hNordosten1.4 km/h1016.6 hPa0.0 mm0.0 mm/hwechselhaft
23.10.2019 - 04.25Uhr11.3 °C8.3 °C82 %0.0 W/m²0.0 uvi0.1 km/hNordosten1.4 km/h1016.6 hPa0.0 mm0.0 mm/hwechselhaft
23.10.2019 - 04.30Uhr11.2 °C8.2 °C82 %0.0 W/m²0.0 uvi0.1 km/hNordosten1.4 km/h1016.6 hPa0.0 mm0.0 mm/hwechselhaft
23.10.2019 - 04.35Uhr11.2 °C8.2 °C82 %0.0 W/m²0.0 uvi0.1 km/hNord-NO1.4 km/h1016.5 hPa0.0 mm0.0 mm/hwechselhaft
23.10.2019 - 04.40Uhr11.1 °C8.1 °C82 %0.0 W/m²0.0 uvi0.4 km/hNordosten6.5 km/h1016.6 hPa0.0 mm0.0 mm/hwechselhaft
23.10.2019 - 04.45Uhr11.1 °C8.1 °C82 %0.0 W/m²0.0 uvi0.1 km/hOst-NO1.4 km/h1016.6 hPa0.0 mm0.0 mm/hwechselhaft
23.10.2019 - 04.50Uhr11.1 °C8.1 °C82 %0.0 W/m²0.0 uvi0.0 km/hOst-NO0.0 km/h1016.5 hPa0.0 mm0.0 mm/hwechselhaft
23.10.2019 - 04.55Uhr11.0 °C8.0 °C82 %0.0 W/m²0.0 uvi0.0 km/hOst-NO0.0 km/h1016.5 hPa0.0 mm0.0 mm/hwechselhaft
23.10.2019 - 05.00Uhr11.0 °C8.0 °C82 %0.0 W/m²0.0 uvi0.3 km/hNordosten7.9 km/h1016.5 hPa0.0 mm0.0 mm/hwechselhaft
23.10.2019 - 05.05Uhr11.1 °C8.1 °C82 %0.0 W/m²0.0 uvi1.7 km/hNordosten13.0 km/h1016.6 hPa0.0 mm0.0 mm/hwechselhaft
23.10.2019 - 05.10Uhr11.0 °C8.0 °C82 %0.0 W/m²0.0 uvi0.1 km/hNordosten1.4 km/h1016.5 hPa0.0 mm0.0 mm/hwechselhaft
23.10.2019 - 05.15Uhr10.9 °C7.9 °C82 %0.0 W/m²0.0 uvi0.0 km/hOst-NO1.4 km/h1016.5 hPa0.0 mm0.0 mm/hwechselhaft
23.10.2019 - 05.20Uhr10.8 °C7.9 °C82 %0.0 W/m²0.0 uvi0.1 km/hNordosten1.4 km/h1016.4 hPa0.0 mm0.0 mm/hwechselhaft
23.10.2019 - 05.25Uhr10.8 °C7.9 °C82 %0.0 W/m²0.0 uvi0.0 km/hNordosten0.0 km/h1016.3 hPa0.0 mm0.0 mm/hwechselhaft
23.10.2019 - 05.30Uhr10.8 °C7.9 °C82 %0.0 W/m²0.0 uvi0.0 km/hNordosten1.4 km/h1016.3 hPa0.0 mm0.0 mm/hwechselhaft
23.10.2019 - 05.35Uhr10.8 °C7.9 °C82 %0.0 W/m²0.0 uvi0.0 km/hNordosten0.0 km/h1016.3 hPa0.0 mm0.0 mm/hwechselhaft
23.10.2019 - 05.40Uhr10.7 °C7.8 °C82 %0.0 W/m²0.0 uvi0.0 km/hOst-NO0.0 km/h1016.3 hPa0.0 mm0.0 mm/hwechselhaft
23.10.2019 - 05.45Uhr10.7 °C7.8 °C82 %0.0 W/m²0.0 uvi0.0 km/hNordosten0.0 km/h1016.2 hPa0.0 mm0.0 mm/hwechselhaft
23.10.2019 - 05.50Uhr10.7 °C7.8 °C82 %0.0 W/m²0.0 uvi0.0 km/hNordosten0.0 km/h1016.0 hPa0.0 mm0.0 mm/hwechselhaft
23.10.2019 - 05.55Uhr10.6 °C7.7 °C82 %0.0 W/m²0.0 uvi0.0 km/hOst-NO0.0 km/h1016.1 hPa0.0 mm0.0 mm/hwechselhaft
23.10.2019 - 06.00Uhr10.4 °C7.5 °C82 %0.0 W/m²0.0 uvi0.0 km/hOst-NO0.0 km/h1016.0 hPa0.0 mm0.0 mm/hwechselhaft
23.10.2019 - 06.05Uhr10.1 °C7.2 °C82 %0.0 W/m²0.0 uvi0.0 km/hOst-NO0.0 km/h1016.0 hPa0.0 mm0.0 mm/hwechselhaft
23.10.2019 - 06.10Uhr9.8 °C7.0 °C83 %0.0 W/m²0.0 uvi0.0 km/hOst-NO0.0 km/h1015.9 hPa0.0 mm0.0 mm/hwechselhaft
23.10.2019 - 06.15Uhr9.5 °C6.8 °C83 %0.0 W/m²0.0 uvi0.0 km/hOst-NO0.0 km/h1015.8 hPa0.0 mm0.0 mm/hwechselhaft
23.10.2019 - 06.20Uhr9.4 °C6.7 °C83 %0.0 W/m²0.0 uvi0.0 km/hOst-NO0.0 km/h1016.0 hPa0.0 mm0.0 mm/hwechselhaft
23.10.2019 - 06.25Uhr9.6 °C6.8 °C82 %0.0 W/m²0.0 uvi0.0 km/hOst-NO0.0 km/h1015.9 hPa0.0 mm0.0 mm/hwechselhaft
23.10.2019 - 06.30Uhr9.8 °C7.1 °C83 %0.0 W/m²0.0 uvi0.0 km/hNordosten0.0 km/h1015.9 hPa0.0 mm0.0 mm/hwechselhaft
23.10.2019 - 06.35Uhr9.8 °C7.1 °C83 %0.0 W/m²0.0 uvi0.0 km/hNordosten0.0 km/h1015.8 hPa0.0 mm0.0 mm/hwechselhaft
23.10.2019 - 06.40Uhr9.8 °C7.1 °C83 %0.0 W/m²0.0 uvi0.0 km/hNordosten0.0 km/h1015.8 hPa0.0 mm0.0 mm/hwechselhaft
23.10.2019 - 06.45Uhr9.8 °C7.1 °C83 %0.0 W/m²0.0 uvi0.0 km/hNordosten0.0 km/h1015.8 hPa0.0 mm0.0 mm/hwechselhaft
23.10.2019 - 06.50Uhr9.8 °C7.1 °C83 %0.0 W/m²0.0 uvi0.0 km/hNordosten0.0 km/h1015.8 hPa0.2 mm0.0 mm/hwechselhaft
23.10.2019 - 06.55Uhr9.8 °C7.1 °C83 %0.0 W/m²0.0 uvi0.0 km/hNordosten0.0 km/h1015.7 hPa0.0 mm0.0 mm/hwechselhaft
23.10.2019 - 07.00Uhr9.8 °C6.9 °C82 %0.0 W/m²0.0 uvi0.0 km/hNordosten0.0 km/h1015.6 hPa0.0 mm0.0 mm/hwechselhaft
23.10.2019 - 07.05Uhr9.8 °C7.1 °C83 %0.0 W/m²0.0 uvi0.0 km/hNordosten0.0 km/h1015.6 hPa0.0 mm0.0 mm/hwechselhaft
23.10.2019 - 07.10Uhr9.9 °C7.1 °C83 %0.0 W/m²0.0 uvi0.0 km/hNordosten0.0 km/h1015.9 hPa0.0 mm0.0 mm/hwechselhaft
23.10.2019 - 07.15Uhr9.8 °C7.1 °C83 %0.0 W/m²0.0 uvi0.0 km/hNordosten0.0 km/h1015.8 hPa0.0 mm0.0 mm/hwechselhaft
23.10.2019 - 07.20Uhr9.7 °C6.9 °C82 %0.0 W/m²0.0 uvi0.0 km/hNordosten0.0 km/h1015.7 hPa0.0 mm0.0 mm/hwechselhaft
23.10.2019 - 07.25Uhr9.7 °C6.8 °C82 %0.0 W/m²0.0 uvi0.0 km/hNordosten0.0 km/h1015.6 hPa0.0 mm0.0 mm/hwechselhaft
23.10.2019 - 07.30Uhr9.8 °C7.0 °C83 %0.0 W/m²0.0 uvi0.0 km/hNordosten0.0 km/h1015.6 hPa0.0 mm0.0 mm/hwechselhaft
23.10.2019 - 07.35Uhr9.9 °C7.1 °C83 %0.0 W/m²0.0 uvi0.0 km/hNordosten0.0 km/h1015.7 hPa0.0 mm0.0 mm/hwechselhaft
23.10.2019 - 07.40Uhr9.9 °C7.1 °C83 %0.0 W/m²0.0 uvi0.0 km/hNordosten0.0 km/h1015.6 hPa0.0 mm0.0 mm/hwechselhaft
23.10.2019 - 07.45Uhr9.8 °C7.1 °C83 %0.0 W/m²0.0 uvi0.0 km/hNordosten0.0 km/h1015.6 hPa0.0 mm0.0 mm/hwechselhaft
23.10.2019 - 07.50Uhr9.8 °C7.1 °C83 %0.0 W/m²0.0 uvi0.0 km/hNordosten0.0 km/h1015.6 hPa0.0 mm0.0 mm/hwechselhaft
23.10.2019 - 07.55Uhr9.9 °C7.1 °C83 %5.0 W/m²0.0 uvi0.0 km/hNordosten0.0 km/h1015.6 hPa0.0 mm0.0 mm/hwechselhaft
23.10.2019 - 08.00Uhr10.0 °C7.2 °C83 %7.0 W/m²0.0 uvi0.0 km/hNordosten0.0 km/h1015.6 hPa0.0 mm0.0 mm/hwechselhaft
23.10.2019 - 08.05Uhr10.1 °C7.3 °C83 %9.0 W/m²0.0 uvi0.0 km/hNordosten0.0 km/h1015.6 hPa0.0 mm0.0 mm/hwechselhaft
23.10.2019 - 08.10Uhr10.1 °C7.3 °C83 %14.0 W/m²0.0 uvi0.0 km/hNordosten0.0 km/h1015.7 hPa0.0 mm0.0 mm/hwechselhaft
23.10.2019 - 08.15Uhr10.1 °C7.3 °C83 %21.0 W/m²0.0 uvi0.0 km/hNordosten0.0 km/h1015.7 hPa0.0 mm0.0 mm/hwechselhaft
23.10.2019 - 08.20Uhr10.1 °C7.3 °C83 %32.0 W/m²0.0 uvi0.0 km/hNordosten0.0 km/h1015.7 hPa0.0 mm0.0 mm/hwechselhaft
23.10.2019 - 08.25Uhr9.9 °C7.1 °C83 %58.0 W/m²0.0 uvi0.0 km/hNordosten0.0 km/h1015.8 hPa0.0 mm0.0 mm/hwechselhaft
23.10.2019 - 08.30Uhr9.9 °C7.1 °C83 %90.0 W/m²0.0 uvi0.0 km/hNordosten0.0 km/h1015.7 hPa0.0 mm0.0 mm/hwechselhaft
23.10.2019 - 08.35Uhr10.1 °C7.3 °C83 %83.0 W/m²0.0 uvi0.0 km/hNordosten0.0 km/h1015.6 hPa0.0 mm0.0 mm/hwechselhaft
23.10.2019 - 08.40Uhr10.2 °C7.4 °C83 %88.0 W/m²0.0 uvi0.0 km/hNordosten0.0 km/h1015.4 hPa0.0 mm0.0 mm/hwechselhaft
23.10.2019 - 08.45Uhr10.2 °C7.4 °C83 %100.0 W/m²0.0 uvi0.0 km/hNordosten0.0 km/h1015.5 hPa0.0 mm0.0 mm/hwechselhaft
23.10.2019 - 08.50Uhr10.2 °C7.4 °C83 %109.0 W/m²0.0 uvi0.0 km/hNordosten0.0 km/h1015.4 hPa0.0 mm0.0 mm/hwechselhaft
23.10.2019 - 08.55Uhr10.2 °C7.4 °C83 %105.0 W/m²0.0 uvi0.0 km/hNordosten0.0 km/h1015.5 hPa0.0 mm0.0 mm/hwechselhaft
23.10.2019 - 09.00Uhr10.2 °C7.4 °C83 %91.0 W/m²0.0 uvi0.0 km/hNordosten0.0 km/h1015.3 hPa0.0 mm0.0 mm/hwechselhaft
23.10.2019 - 09.05Uhr10.2 °C7.4 °C83 %102.0 W/m²0.0 uvi0.0 km/hNordosten0.0 km/h1015.2 hPa0.0 mm0.0 mm/hwechselhaft
23.10.2019 - 09.10Uhr10.2 °C7.4 °C83 %91.0 W/m²0.0 uvi0.0 km/hNordosten0.0 km/h1015.3 hPa0.0 mm0.0 mm/hwechselhaft
23.10.2019 - 09.15Uhr10.3 °C7.5 °C83 %132.0 W/m²0.0 uvi0.0 km/hNordosten1.4 km/h1015.2 hPa0.0 mm0.0 mm/hwechselhaft
23.10.2019 - 09.20Uhr10.5 °C7.7 °C83 %148.0 W/m²0.0 uvi0.0 km/hNordosten0.0 km/h1015.2 hPa0.0 mm0.0 mm/hwechselhaft
23.10.2019 - 09.25Uhr10.7 °C7.9 °C83 %179.0 W/m²0.0 uvi0.0 km/hNordosten0.0 km/h1015.3 hPa0.0 mm0.0 mm/hwechselhaft
23.10.2019 - 09.30Uhr10.8 °C8.0 °C83 %186.0 W/m²0.0 uvi0.0 km/hNorden0.0 km/h1015.2 hPa0.0 mm0.0 mm/hwechselhaft
23.10.2019 - 09.35Uhr10.8 °C8.0 °C83 %163.0 W/m²0.0 uvi0.0 km/hNorden0.0 km/h1015.2 hPa0.0 mm0.0 mm/hwechselhaft
23.10.2019 - 09.40Uhr10.8 °C8.0 °C83 %151.0 W/m²0.1 uvi0.0 km/hNorden0.0 km/h1015.2 hPa0.0 mm0.0 mm/hwechselhaft
23.10.2019 - 09.45Uhr10.8 °C7.9 °C82 %218.0 W/m²0.5 uvi0.0 km/hNorden0.0 km/h1015.0 hPa0.0 mm0.0 mm/hwechselhaft
23.10.2019 - 09.50Uhr10.8 °C7.9 °C82 %258.0 W/m²0.6 uvi0.0 km/hNord-NW0.0 km/h1015.0 hPa0.0 mm0.0 mm/hwechselhaft
23.10.2019 - 09.55Uhr11.1 °C8.2 °C83 %338.0 W/m²0.6 uvi0.0 km/hNordwesten0.0 km/h1015.1 hPa0.0 mm0.0 mm/hwechselhaft
23.10.2019 - 10.00Uhr11.3 °C8.3 °C82 %248.0 W/m²0.6 uvi0.0 km/hNordwesten0.0 km/h1015.0 hPa0.0 mm0.0 mm/hwechselhaft
23.10.2019 - 10.05Uhr11.4 °C8.4 °C82 %230.0 W/m²0.6 uvi0.0 km/hNordwesten0.0 km/h1015.1 hPa0.0 mm0.0 mm/hwechselhaft
23.10.2019 - 10.10Uhr11.4 °C8.4 °C82 %181.0 W/m²0.6 uvi0.0 km/hNordwesten0.0 km/h1015.0 hPa0.0 mm0.0 mm/hwechselhaft
23.10.2019 - 10.15Uhr11.4 °C8.4 °C82 %148.0 W/m²0.6 uvi0.0 km/hNordwesten1.4 km/h1015.1 hPa0.0 mm0.0 mm/hwechselhaft
23.10.2019 - 10.20Uhr11.4 °C8.4 °C82 %163.0 W/m²0.6 uvi0.0 km/hWest-SW0.0 km/h1015.2 hPa0.0 mm0.0 mm/hwechselhaft
23.10.2019 - 10.25Uhr11.5 °C8.5 °C82 %171.0 W/m²0.8 uvi0.0 km/hWest-SW0.0 km/h1015.0 hPa0.0 mm0.0 mm/hwechselhaft
23.10.2019 - 10.30Uhr11.6 °C8.6 °C82 %336.0 W/m²0.9 uvi0.0 km/hWest-SW0.0 km/h1015.0 hPa0.0 mm0.0 mm/hwechselhaft
23.10.2019 - 10.35Uhr11.7 °C8.7 °C82 %359.0 W/m²1.0 uvi0.1 km/hOst-NO1.4 km/h1015.0 hPa0.0 mm0.0 mm/hwechselhaft
23.10.2019 - 10.40Uhr11.8 °C8.8 °C82 %357.0 W/m²1.1 uvi0.0 km/hOst-NO1.4 km/h1014.9 hPa0.0 mm0.0 mm/hwechselhaft
23.10.2019 - 10.45Uhr12.1 °C9.1 °C82 %367.0 W/m²1.2 uvi0.2 km/hOst-NO1.4 km/h1014.9 hPa0.0 mm0.0 mm/hwechselhaft
23.10.2019 - 10.50Uhr12.0 °C9.0 °C82 %390.0 W/m²1.3 uvi0.5 km/hOst-NO1.4 km/h1014.8 hPa0.0 mm0.0 mm/hwechselhaft
23.10.2019 - 10.55Uhr12.2 °C9.2 °C82 %396.0 W/m²1.3 uvi0.0 km/hOst-NO1.4 km/h1015.1 hPa0.0 mm0.0 mm/hwechselhaft
23.10.2019 - 11.00Uhr12.4 °C9.4 °C82 %385.0 W/m²1.3 uvi0.0 km/hNorden0.0 km/h1015.0 hPa0.0 mm0.0 mm/hwechselhaft
23.10.2019 - 11.05Uhr12.6 °C9.6 °C82 %251.0 W/m²1.2 uvi0.0 km/hNord-NW0.0 km/h1015.1 hPa0.0 mm0.0 mm/hwechselhaft
23.10.2019 - 11.10Uhr12.4 °C9.4 °C82 %304.0 W/m²1.3 uvi0.0 km/hNord-NW0.0 km/h1015.0 hPa0.0 mm0.0 mm/hwechselhaft
23.10.2019 - 11.15Uhr12.5 °C9.5 °C82 %441.0 W/m²1.4 uvi0.0 km/hWest-NW0.0 km/h1014.9 hPa0.0 mm0.0 mm/hwechselhaft
23.10.2019 - 11.20Uhr12.7 °C9.7 °C82 %452.0 W/m²1.6 uvi0.0 km/hWesten0.0 km/h1014.9 hPa0.0 mm0.0 mm/hwechselhaft
23.10.2019 - 11.25Uhr12.8 °C9.8 °C82 %432.0 W/m²1.6 uvi0.0 km/hWest-SW0.0 km/h1014.8 hPa0.0 mm0.0 mm/hwechselhaft
23.10.2019 - 11.30Uhr12.9 °C9.9 °C82 %425.0 W/m²1.6 uvi0.0 km/hWest-SW0.0 km/h1014.7 hPa0.0 mm0.0 mm/hwechselhaft
23.10.2019 - 11.35Uhr13.0 °C10.0 °C82 %429.0 W/m²1.6 uvi0.0 km/hWest-SW0.0 km/h1014.8 hPa0.0 mm0.0 mm/hwechselhaft
23.10.2019 - 11.40Uhr13.1 °C10.1 °C82 %429.0 W/m²1.5 uvi0.0 km/hSüdwesten0.0 km/h1014.8 hPa0.0 mm0.0 mm/hwechselhaft
23.10.2019 - 11.45Uhr13.1 °C10.1 °C82 %332.0 W/m²1.5 uvi0.0 km/hWesten0.0 km/h1014.7 hPa0.0 mm0.0 mm/hwechselhaft
23.10.2019 - 11.50Uhr13.2 °C10.2 °C82 %315.0 W/m²1.6 uvi0.0 km/hWesten0.0 km/h1014.8 hPa0.0 mm0.0 mm/hwechselhaft
23.10.2019 - 11.55Uhr13.2 °C10.4 °C83 %380.0 W/m²1.7 uvi0.0 km/hWesten0.0 km/h1014.8 hPa0.0 mm0.0 mm/hwechselhaft
23.10.2019 - 12.00Uhr13.3 °C10.5 °C83 %480.0 W/m²1.9 uvi0.0 km/hWest-NW0.0 km/h1014.7 hPa0.0 mm0.0 mm/hwechselhaft
23.10.2019 - 12.05Uhr13.2 °C10.4 °C83 %512.0 W/m²2.1 uvi0.5 km/hWesten3.2 km/h1014.7 hPa0.0 mm0.0 mm/hwechselhaft
23.10.2019 - 12.10Uhr13.2 °C10.4 °C83 %526.0 W/m²2.2 uvi0.5 km/hWesten1.4 km/h1014.7 hPa0.0 mm0.0 mm/hwechselhaft
23.10.2019 - 12.15Uhr13.3 °C10.5 °C83 %510.0 W/m²2.1 uvi0.4 km/hWesten1.4 km/h1014.6 hPa0.0 mm0.0 mm/hwechselhaft
23.10.2019 - 12.20Uhr13.3 °C10.5 °C83 %510.0 W/m²2.2 uvi0.6 km/hWesten1.4 km/h1014.6 hPa0.0 mm0.0 mm/hwechselhaft
23.10.2019 - 12.25Uhr13.3 °C10.5 °C83 %504.0 W/m²2.2 uvi0.6 km/hWesten1.4 km/h1014.4 hPa0.0 mm0.0 mm/hwechselhaft
23.10.2019 - 12.30Uhr13.4 °C10.6 °C83 %494.0 W/m²2.2 uvi0.5 km/hWesten3.2 km/h1014.4 hPa0.0 mm0.0 mm/hwechselhaft
23.10.2019 - 12.35Uhr13.6 °C10.8 °C83 %492.0 W/m²2.3 uvi0.9 km/hWesten3.2 km/h1014.3 hPa0.0 mm0.0 mm/hwechselhaft
23.10.2019 - 12.40Uhr13.7 °C10.8 °C83 %494.0 W/m²2.3 uvi1.0 km/hWesten3.2 km/h1014.3 hPa0.0 mm0.0 mm/hwechselhaft
23.10.2019 - 12.45Uhr13.8 °C10.9 °C82 %485.0 W/m²2.3 uvi0.5 km/hWesten1.4 km/h1014.2 hPa0.0 mm0.0 mm/hwechselhaft